This is the latest recevied weather packets stored in our database for station/object K8RRT. If no packets are shown the sender has not sent any weather packets the latest 10 day(s).
| Time | Temp. | Humidity | Pressure | Rain* | Wind** | Luminosity | Snow |
|---|---|---|---|---|---|---|---|
| 1777760818 | 12.22° C | 47% | 1011.3 hPa | 0 mm | - | 119 W/m² | - |
| 1777760515 | 12.22° C | 46% | 1011.2 hPa | 0 mm | - | 117 W/m² | - |
| 1777760210 | 12.22° C | 47% | 1011.2 hPa | 0 mm | - | 121 W/m² | - |
| 1777759907 | 12.22° C | 47% | 1011.2 hPa | 0 mm | - | 112 W/m² | - |
| 1777759604 | 12.22° C | 45% | 1011.2 hPa | 0 mm | - | 102 W/m² | - |
| 1777759300 | 12.78° C | 46% | 1011.1 hPa | 0 mm | - | 232 W/m² | - |
| 1777758997 | 13.33° C | 45% | 1011 hPa | 0 mm | - | 334 W/m² | - |
| 1777758694 | 13.33° C | 44% | 1011.1 hPa | 0 mm | - | 340 W/m² | - |
| 1777758391 | 12.78° C | 45% | 1011 hPa | 0 mm | - | 288 W/m² | - |
| 1777758088 | 12.78° C | 48% | 1010.9 hPa | 0 mm | - | 150 W/m² | - |
| 1777757785 | 13.33° C | 47% | 1011.1 hPa | 0 mm | - | 374 W/m² | - |
| 1777757483 | 13.89° C | 45% | 1011.1 hPa | 0 mm | - | 451 W/m² | - |
| 1777757182 | 13.33° C | 47% | 1010.9 hPa | 0 mm | - | 461 W/m² | - |
| 1777756880 | 12.22° C | 47% | 1011.1 hPa | 0 mm | - | 195 W/m² | - |
| 1777756574 | 12.22° C | 50% | 1010.9 hPa | 0 mm | - | 147 W/m² | - |
| 1777756272 | 11.67° C | 47% | 1010.9 hPa | 0 mm | - | 123 W/m² | - |
| 1777755969 | 11.67° C | 49% | 1011.1 hPa | 0 mm | - | 84 W/m² | - |
| 1777755666 | 12.22° C | 47% | 1011 hPa | 0 mm | - | 82 W/m² | - |
| 1777755363 | 12.22° C | 47% | 1010.9 hPa | 0 mm | - | 89 W/m² | - |
| 1777755060 | 12.78° C | 45% | 1010.8 hPa | 0 mm | - | 128 W/m² | - |
| 1777754756 | 13.89° C | 47% | 1010.9 hPa | 0 mm | - | 548 W/m² | - |
| 1777754454 | 13.33° C | 47% | 1011.1 hPa | 0 mm | - | 321 W/m² | - |
| 1777754151 | 12.78° C | 47% | 1011.3 hPa | 0 mm | - | 427 W/m² | - |
| 1777753848 | 12.78° C | 47% | 1011.2 hPa | 0 mm | - | 232 W/m² | - |
| 1777753544 | 12.22° C | 49% | 1011 hPa | 0 mm | - | 246 W/m² | - |
* Rain latest hour (hover to see other rain measurements)
** Current wind speed in m/s (hover to see current wind gust speed)